Cebollita Spring, Valles Caldera, New Mexico Weather observations

Data are for 10 minute period ending at time listed.
 Day   Time   Solar   Ave.   Ave.  Ave.  Vector  Max.   Baro.   Total    
  of    of     Rad.   Air    Rel.  Wind   Wind   Wind  Press.  Precip.   
Year   Day            Temp.  Hum.  Speed  Dir.   Gust                    
2014   (MST)  Kw/m2    F      %     mph   deg.    mph    mb.     in.     
-------------------------------------------------------------------------
 355   18:30   0.00   31.4    75    3.5   337    11.3   99999.0    0.00 
 355   18:40   0.00   31.9    74    3.5   324    10.2   99999.0    0.00 
 355   18:50   0.00   31.9    74    4.7   312    10.8   99999.0    0.00 
 355   19:00   0.00   32.7    73    5.8   311    15.5   99999.0    0.00 
 355   19:10   0.00   33.5    72    7.0   306    17.3   99999.0    0.00 
 355   19:20   0.00   33.6    71    6.8   305    20.3   99999.0    0.00 
 355   19:30   0.00   33.8    71    6.5   320    14.6   99999.0    0.00 
 355   19:40   0.00   33.5    72    6.5   302    16.1   99999.0    0.00 
 355   19:50   0.00   33.6    72    5.9   308    11.3   99999.0    0.00 
 355   20:00   0.00   33.7    72    5.1   308    11.3   99999.0    0.00 
 355   20:10   0.00   33.9    71    5.0   307    11.9   99999.0    0.00 
 355   20:20   0.00   33.3    73    5.3   293    13.7   99999.0    0.00 
 355   20:30   0.00   33.4    73    6.6   296    12.5   99999.0    0.00 
 355   20:40   0.00   33.6    73    7.2   298    14.3   99999.0    0.00 
 355   20:50   0.00   33.5    74    5.7   286    14.9   99999.0    0.00 
 355   21:00   0.00   33.2    75    4.6   291     9.0   99999.0    0.00 
 355   21:10   0.00   33.3    75    6.2   295    15.5   99999.0    0.00 
 355   21:20   0.00   33.4    75    6.9   282    15.5   99999.0    0.00 
 355   21:30   0.00   33.2    76    6.9   276    16.1   99999.0    0.00 
 355   21:40   0.00   33.1    76    6.8   277    11.9   99999.0    0.00 
 355   21:50   0.00   32.9    77    8.5   276    13.7   99999.0    0.00 
 355   22:00   0.00   32.8    77    9.3   272    19.1   99999.0    0.00 
 355   22:10   0.00   32.7    78   10.1   275    19.1   99999.0    0.00 
 355   22:20   0.00   32.7    78    9.1   281    18.5   99999.0    0.00 
 355   22:30   0.00   33.1    78   10.3   276    21.5   99999.0    0.00 
 355   22:40   0.00   33.2    78   10.1   282    20.3   99999.0    0.00 
 355   22:50   0.00   33.2    79    9.3   283    17.3   99999.0    0.00 
 355   23:00   0.00   33.1    79    9.5   281    23.3   99999.0    0.00 
 355   23:10   0.00   33.2    78    9.5   277    17.3   99999.0    0.00 
 355   23:20   0.00   33.1    79   11.8   279    26.2   99999.0    0.00 
 355   23:30   0.00   32.9    79   12.1   274    20.3   99999.0    0.00 
 355   23:40   0.00   32.8    80   10.7   279    23.0   99999.0    0.00 
 355   23:50   0.00   32.7    80   11.0   283    19.7   99999.0    0.00 
 356    0:00   0.00   32.6    81    8.6   281    17.9   99999.0    0.00 
 356    0:10   0.00   32.4    82    7.9   288    19.7   99999.0    0.00 
 356    0:20   0.00   32.3    82   10.4   286    20.3   99999.0    0.00 
 356    0:30   0.00   32.2    82   10.4   282    25.6   99999.0    0.00 
 356    0:40   0.00   32.3    82   11.5   288    21.5   99999.0    0.00 
 356    0:50   0.00   32.3    82    9.6   287    17.9   99999.0    0.00 
 356    1:00   0.00   32.5    82   10.6   286    26.8   99999.0    0.00 
 356    1:10   0.00   32.7    81    9.7   291    19.7   99999.0    0.00 
 356    1:20   0.00   32.5    82    9.4   285    17.9   99999.0    0.00 
 356    1:30   0.00   32.2    82    9.7   288    19.7   99999.0    0.00 
 356    1:40   0.00   32.4    82    9.1   290    16.7   99999.0    0.00 
 356    1:50   0.00   32.5    82   10.0   292    22.7   99999.0    0.00 
 356    2:00   0.00   32.7    82    9.1   286    18.5   99999.0    0.00 
 356    2:10   0.00   32.4    82    8.6   294    21.5   99999.0    0.00 
 356    2:20   0.00   32.2    83    9.1   290    19.1   99999.0    0.00 
 356    2:30   0.00   32.0    84    9.9   289    21.5   99999.0    0.00 
 356    2:40   0.00   31.9    84   10.6   288    25.6   99999.0    0.00 
 356    2:50   0.00   32.2    83   10.3   286    22.7   99999.0    0.00 
 356    3:00   0.00   32.5    81    9.3   289    22.7   99999.0    0.00 
 356    3:10   0.00   33.3    80   12.6   294    27.1   99999.0    0.00 
 356    3:20   0.00   33.6    78    9.8   292    20.9   99999.0    0.00 
 356    3:30   0.00   33.8    78   12.2   292    33.4   99999.0    0.00 
 356    3:40   0.00   34.2    77   12.3   287    31.6   99999.0    0.00 
 356    3:50   0.00   33.9    78   11.0   291    23.3   99999.0    0.00 
 356    4:00   0.00   33.8    78   11.4   292    22.1   99999.0    0.00 
 356    4:10   0.00   33.8    78   13.0   284    27.4   99999.0    0.00 
 356    4:20   0.00   33.7    78   13.2   289    30.4   99999.0    0.00 
 356    4:30   0.00   33.3    80    9.5   295    20.3   99999.0    0.00 
 356    4:40   0.00   33.3    80   10.2   280    23.9   99999.0    0.00 
 356    4:50   0.00   33.5    80   12.6   279    28.6   99999.0    0.00 
 356    5:00   0.00   33.4    81   11.1   276    26.5   99999.0    0.00 
 356    5:10   0.00   33.4    81   11.6   288    22.1   99999.0    0.00 
 356    5:20   0.00   33.3    82   10.1   281    23.3   99999.0    0.00 
 356    5:30   0.00   33.0    82   10.7   282    25.0   99999.0    0.00 
 356    5:40   0.00   32.9    83   11.7   272    22.4   99999.0    0.00 
 356    5:50   0.00   32.6    83   10.1   275    20.3   99999.0    0.00 
 356    6:00   0.00   32.5    84   10.2   276    21.5   99999.0    0.00 
 356    6:10   0.00   32.7    84    8.9   271    21.5   99999.0    0.00 
 356    6:20   0.00   32.5    84   10.2   283    20.3   99999.0    0.00 
 356    6:30   0.00   32.8    83   11.2   280    25.6   99999.0    0.00 
 356    6:40   0.00   32.9    83    8.9   282    21.5   99999.0    0.00 
 356    6:50   0.00   33.1    82   10.2   287    22.1   99999.0    0.00 
 356    7:00   0.00   33.3    82    8.9   280    20.3   99999.0    0.00 
 356    7:10   0.00   33.3    82   11.7   275    26.2   99999.0    0.00 
 356    7:20   0.00   33.2    82    9.5   280    17.9   99999.0    0.00 
 356    7:30   0.00   33.1    82    9.8   282    20.9   99999.0    0.00 
 356    7:40   0.01   33.2    82    9.7   283    20.9   99999.0    0.00 
 356    7:50   0.01   33.2    82   11.4   286    29.2   99999.0    0.00 
 356    8:00   0.02   33.4    81   10.3   281    27.4   99999.0    0.00 
 356    8:10   0.04   33.4    82   10.5   276    23.9   99999.0    0.00 
 356    8:20   0.06   33.4    82   11.5   282    28.6   99999.0    0.00 
 356    8:30   0.07   33.4    81   10.4   292    21.5   99999.0    0.00 
 356    8:40   0.14   33.5    81   11.8   278    22.1   99999.0    0.00 
 356    8:50   0.16   33.7    80   10.6   280    24.5   99999.0    0.00 
 356    9:00   0.21   34.3    78   10.3   276    22.7   99999.0    0.00 
 356    9:10   0.19   34.9    76   11.0   280    22.1   99999.0    0.00 
 356    9:20   0.31   35.1    76   12.0   279    24.5   99999.0    0.00 
 356    9:30   0.35   35.4    75   11.6   275    22.7   99999.0    0.00 
 356    9:40   0.47   36.2    73   10.4   284    20.9   99999.0    0.00 
 356    9:50   0.45   36.3    73   11.7   270    25.6   99999.0    0.00 
 356   10:00   0.43   36.3    74   11.2   265    20.3   99999.0    0.00 
 356   10:10   0.49   36.5    73   12.7   266    25.6   99999.0    0.00 
 356   10:20   0.51   36.8    72   12.2   271    21.5   99999.0    0.00 
 356   10:30   0.50   37.1    72   11.0   274    22.1   99999.0    0.00 
 356   10:40   0.45   36.7    73   11.3   270    21.5   99999.0    0.00 
 356   10:50   0.58   37.3    71   10.8   279    22.1   99999.0    0.00 
 356   11:00   0.50   37.7    70   10.5   270    23.9   99999.0    0.00 
 356   11:10   0.59   37.8    70   12.0   279    22.1   99999.0    0.00 
 356   11:20   0.53   38.1    69    9.9   275    19.7   99999.0    0.00 
 356   11:30   0.44   37.9    70   10.3   279    20.3   99999.0    0.00 
 356   11:40   0.23   37.5    71    9.3   273    17.3   99999.0    0.00 
 356   11:50   0.27   37.0    73    9.1   278    19.1   99999.0    0.00 
 356   12:00   0.24   37.2    72   10.2   271    25.6   99999.0    0.00 
 356   12:10   0.11   36.4    74   10.7   283    25.0   99999.0    0.00 
 356   12:20   0.27   36.5    74   11.7   277    23.9   99999.0    0.00 
 356   12:30   0.24   36.9    76   10.8   272    19.1   99999.0    0.00 
 356   12:40   0.16   36.0    79   11.0   273    25.6   99999.0    0.00 
 356   12:50   0.15   36.1    78   10.2   276    22.7   99999.0    0.00 
 356   13:00   0.27   37.2    74    9.1   279    17.3   99999.0    0.00 
 356   13:10   0.16   37.6    73   11.9   276    25.0   99999.0    0.00 
 356   13:20   0.18   37.5    73   10.1   285    27.4   99999.0    0.00 
 356   13:30   0.11   37.5    72   11.8   280    26.2   99999.0    0.00 
 356   13:40   0.09   37.3    72   10.8   276    26.8   99999.0    0.00 
 356   13:50   0.08   36.9    73   13.9   284    26.2   99999.0    0.00 
 356   14:00   0.13   35.6    81   13.1   269    24.5   99999.0    0.00 
 356   14:10   0.39   36.6    80   11.8   273    22.1   99999.0    0.00 
 356   14:20   0.18   37.3    74   13.6   278    30.4   99999.0    0.00 
 356   14:30   0.08   37.2    71   14.3   280    30.4   99999.0    0.00 
 356   14:40   0.17   37.5    67   15.0   288    32.8   99999.0    0.00 
 356   14:50   0.29   37.7    65   17.0   287    34.0   99999.0    0.00 
 356   15:00   0.29   37.7    66   14.6   286    29.2   99999.0    0.00 
 356   15:10   0.19   37.0    70   18.1   278    34.6   99999.0    0.00 
 356   15:20   0.14   36.1    72   14.8   277    31.6   99999.0    0.00 
 356   15:30   0.33   36.4    71   17.3   273    31.6   99999.0    0.00 
 356   15:40   0.21   36.0    70   14.4   282    29.8   99999.0    0.00 
 356   15:50   0.15   35.3    70   14.2   282    29.8   99999.0    0.00 
 356   16:00   0.08   34.6    71   15.0   283    40.5   99999.0    0.00 
 356   16:10   0.09   34.2    72   13.3   291    27.4   99999.0    0.00 
 356   16:20   0.07   34.0    73   14.8   286    33.4   99999.0    0.00 
 356   16:30   0.05   33.7    72   15.5   284    39.3   99999.0    0.00 
 356   16:40   0.01   33.5    72   15.8   286    31.6   99999.0    0.00 
 356   16:50   0.01   33.2    74   16.5   291    31.6   99999.0    0.00 
 356   17:00   0.00   33.1    75   17.3   290    41.1   99999.0    0.00 
 356   17:10   0.00   32.9    75   15.8   286    39.3   99999.0    0.00 
 356   17:20   0.00   33.0    73   17.6   288    35.2   99999.0    0.00 
 356   17:30   0.00   33.0    73   12.9   287    29.2   99999.0    0.00 
 356   17:40   0.00   33.0    73   13.6   292    38.8   99999.0    0.00 
 356   17:50   0.00   32.8    73   12.9   291    27.4   99999.0    0.00 
 356   18:00   0.00   32.8    72   17.6   289    34.6   99999.0    0.00 
 356   18:10   0.00   32.6    73   14.7   289    32.8   99999.0    0.00 
 356   18:20   0.00   32.5    74   13.5   286    31.6   99999.0    0.00 

Return to Cebollita Spring, Valles Caldera graphs page.


Western Regional Climate Center,wrcc@dri.edu